Time;durP1;ratioP1;P1;durP2;ratioP2;P2;SDS_P1;SDS_P2;PMS_P1;PMS_P2;Temp;Humidity;BMP_temperature;BMP_pressure;BME280_temperature;BME280_humidity;BME280_pressure;Samples;Min_cycle;Max_cycle;Signal;HPM_P1;HPM_P2
2021/12/27 00:01:02;;;;;;;6.50;4.07;;;;;;;-3.23;90.34;100500.09;5059854;28;20040;-70
2021/12/27 00:03:27;;;;;;;5.13;3.35;;;;;;;-3.25;90.02;100487.25;5059753;28;20028;-70
2021/12/27 00:05:53;;;;;;;5.43;4.28;;;;;;;-3.29;90.29;100483.13;5062790;28;20035;-71
2021/12/27 00:08:18;;;;;;;10.43;5.38;;;;;;;-3.33;90.14;100459.22;5069840;28;20024;-70
2021/12/27 00:10:44;;;;;;;8.13;5.25;;;;;;;-3.27;90.27;100465.84;5076649;28;20024;-70
2021/12/27 00:13:10;;;;;;;9.63;4.90;;;;;;;-3.26;90.36;100472.69;5055022;28;20067;-70
2021/12/27 00:15:36;;;;;;;9.82;5.20;;;;;;;-3.27;90.56;100465.84;5076471;28;20028;-69
2021/12/27 00:18:02;;;;;;;11.35;6.28;;;;;;;-3.29;90.60;100466.81;5057928;28;20040;-69
2021/12/27 00:20:28;;;;;;;12.25;6.28;;;;;;;-3.27;90.61;100459.84;5080122;28;20490;-70
2021/12/27 00:22:54;;;;;;;7.97;5.13;;;;;;;-3.32;90.61;100442.81;5074845;28;20094;-70
2021/12/27 00:25:20;;;;;;;10.48;6.03;;;;;;;-3.35;91.03;100445.56;5073662;28;20032;-70
2021/12/27 00:27:46;;;;;;;6.40;4.82;;;;;;;-3.33;91.33;100443.75;5075018;28;20476;-70
2021/12/27 00:30:13;;;;;;;8.23;5.13;;;;;;;-3.34;91.49;100447.22;5077757;28;20073;-70
2021/12/27 00:32:40;;;;;;;14.02;5.82;;;;;;;-3.33;91.04;100441.16;5072890;28;20032;-70
2021/12/27 00:35:07;;;;;;;9.38;6.05;;;;;;;-3.35;91.94;100439.56;5077402;28;20440;-71
2021/12/27 00:37:34;;;;;;;10.80;5.45;;;;;;;-3.35;92.00;100448.16;5058860;28;20019;-70
2021/12/27 00:39:59;;;;;;;7.13;4.07;;;;;;;-3.47;91.29;100442.72;5072167;28;20033;-69
2021/12/27 00:42:25;;;;;;;9.73;5.57;;;;;;;-3.34;91.69;100454.13;5061674;28;20028;-70
2021/12/27 00:44:50;;;;;;;7.65;4.32;;;;;;;-3.46;92.30;100434.91;5055118;28;20032;-70
2021/12/27 00:47:16;;;;;;;9.23;5.72;;;;;;;-3.38;92.04;100437.13;5078689;28;20036;-70
2021/12/27 00:49:41;;;;;;;7.32;5.47;;;;;;;-3.40;91.77;100450.09;5073598;28;20423;-70
2021/12/27 00:52:07;;;;;;;10.30;5.30;;;;;;;-3.41;91.91;100443.25;5074333;28;20043;-70
2021/12/27 00:54:32;;;;;;;9.77;4.95;;;;;;;-3.46;91.79;100444.38;5074585;28;20044;-70
2021/12/27 00:56:58;;;;;;;6.10;3.55;;;;;;;-3.54;92.12;100435.25;5062944;28;20386;-70
2021/12/27 00:59:23;;;;;;;7.80;4.78;;;;;;;-3.49;91.73;100437.63;5060844;28;20043;-70
2021/12/27 01:01:49;;;;;;;7.30;5.32;;;;;;;-3.53;92.05;100438.66;5075862;28;20238;-70
2021/12/27 01:04:14;;;;;;;10.63;5.13;;;;;;;-3.65;92.25;100418.59;5076327;28;20028;-69
2021/12/27 01:06:40;;;;;;;10.02;5.60;;;;;;;-3.59;92.70;100433.81;5059227;28;20025;-70
2021/12/27 01:09:05;;;;;;;9.77;4.32;;;;;;;-3.57;93.06;100447.44;5061606;28;20392;-70
2021/12/27 01:14:16;;;;;;;10.77;5.53;;;;;;;-3.82;93.03;100412.44;5069496;28;20082;-70
2021/12/27 01:16:44;;;;;;;12.18;7.70;;;;;;;-3.64;93.29;100446.88;5058548;28;20051;-70
2021/12/27 01:19:10;;;;;;;9.63;4.78;;;;;;;-3.70;93.36;100436.00;5071429;28;20054;-70
2021/12/27 01:21:36;;;;;;;7.93;3.92;;;;;;;-3.85;93.26;100410.03;5068535;28;20377;-70
2021/12/27 01:24:03;;;;;;;13.65;6.10;;;;;;;-3.74;93.82;100433.56;5071821;28;20039;-70
2021/12/27 01:26:28;;;;;;;13.80;6.32;;;;;;;-3.74;93.66;100438.72;5071610;28;20570;-69
2021/12/27 01:28:56;;;;;;;8.88;4.82;;;;;;;-3.73;94.21;100435.22;5072077;28;20097;-71
2021/12/27 01:31:22;;;;;;;10.13;6.88;;;;;;;-3.73;93.47;100442.97;5075008;28;20115;-69
2021/12/27 01:33:47;;;;;;;9.68;6.28;;;;;;;-3.85;93.80;100415.19;5072758;28;20454;-70
2021/12/27 01:36:14;;;;;;;8.75;4.68;;;;;;;-3.72;93.49;100439.50;5053720;28;20089;-70
2021/12/27 01:38:40;;;;;;;11.88;6.65;;;;;;;-3.68;94.06;100440.22;5053245;28;20032;-70
2021/12/27 01:41:08;;;;;;;12.85;6.75;;;;;;;-3.83;93.95;100421.09;5074581;28;20036;-72
2021/12/27 01:43:36;;;;;;;6.80;4.60;;;;;;;-3.68;93.42;100440.22;5057718;28;20021;-71
2021/12/27 01:46:06;;;;;;;12.57;6.20;;;;;;;-3.62;93.98;100436.50;5058326;28;20078;-70
2021/12/27 01:48:37;;;;;;;22.63;5.95;;;;;;;-3.63;94.22;100434.84;5075102;28;20028;-70
2021/12/27 01:51:09;;;;;;;9.90;5.30;;;;;;;-3.64;93.92;100439.13;5058889;28;20559;-70
2021/12/27 01:53:37;;;;;;;9.98;5.70;;;;;;;-3.58;94.22;100425.13;5066999;28;20035;-70
2021/12/27 01:56:04;;;;;;;13.23;6.95;;;;;;;-3.54;93.38;100432.66;5065449;28;20048;-70
2021/12/27 01:58:30;;;;;;;11.55;6.22;;;;;;;-3.54;93.86;100426.69;5054268;28;20025;-69
2021/12/27 02:00:58;;;;;;;8.38;5.25;;;;;;;-3.55;94.38;100415.53;5038488;28;20037;-70
2021/12/27 02:03:29;;;;;;;9.02;4.15;;;;;;;-3.63;93.89;100396.16;5054091;28;20567;-70
2021/12/27 02:05:55;;;;;;;;;;;;;;;-3.56;93.90;100397.53;5051781;28;20082;-69
2021/12/27 02:08:21;;;;;;;11.98;5.25;;;;;;;-3.64;94.26;100373.81;5052587;28;20011;-69
2021/12/27 02:10:46;;;;;;;6.53;3.63;;;;;;;-3.56;94.50;100389.78;5055991;28;20557;-70
2021/12/27 02:13:12;;;;;;;10.45;6.68;;;;;;;-3.56;94.83;100384.63;5054005;28;20095;-69
2021/12/27 02:15:38;;;;;;;18.48;6.30;;;;;;;-3.60;94.77;100368.44;5036343;28;20417;-70
2021/12/27 02:18:05;;;;;;;6.38;3.45;;;;;;;-3.53;94.43;100379.31;5050993;28;20032;-69
2021/12/27 02:20:33;;;;;;;5.43;4.28;;;;;;;-3.52;94.98;100381.00;5061871;28;20515;-70
2021/12/27 02:23:02;;;;;;;11.35;7.10;;;;;;;-3.50;94.12;100386.94;5057092;28;20028;-71
2021/12/27 02:25:30;;;;;;;7.85;5.80;;;;;;;-3.43;94.67;100388.31;5053802;28;20036;-70
2021/12/27 02:27:55;;;;;;;10.85;5.95;;;;;;;-3.54;94.18;100355.28;5055163;28;20017;-70
2021/12/27 02:30:22;;;;;;;10.60;5.90;;;;;;;-3.58;94.31;100352.91;5037682;28;20048;-70
2021/12/27 02:32:52;;;;;;;20.52;7.40;;;;;;;-3.45;94.67;100366.91;5056434;28;20024;-70
2021/12/27 02:35:27;;;;;;;6.75;5.18;;;;;;;-3.45;93.89;100359.16;5057078;28;20393;-70
2021/12/27 02:37:54;;;;;;;11.77;5.63;;;;;;;-3.49;94.34;100352.47;5055484;28;20048;-69
2021/12/27 02:40:25;;;;;;;7.00;5.18;;;;;;;-3.40;94.27;100364.09;5053422;28;20037;-70
2021/12/27 02:43:10;;;;;;;;;;;;;;;-3.43;94.46;100362.50;5059781;28;20025;-69
2021/12/27 02:45:38;;;;;;;12.85;6.40;;;;;;;-3.35;94.22;100373.31;5054924;28;19912;-70
2021/12/27 02:48:05;;;;;;;13.48;8.65;;;;;;;-3.33;93.80;100373.25;5053513;28;20055;-70
2021/12/27 02:50:32;;;;;;;13.55;6.35;;;;;;;-3.34;94.47;100369.81;5054666;28;20481;-70
2021/12/27 02:52:58;;;;;;;13.65;6.82;;;;;;;-3.33;94.62;100363.75;5055539;28;20036;-71
2021/12/27 02:55:24;;;;;;;8.73;4.75;;;;;;;-3.35;94.10;100360.41;5067842;28;20048;-70
2021/12/27 02:57:50;;;;;;;14.15;9.00;;;;;;;-3.35;94.22;100357.81;5061752;28;20016;-70
2021/12/27 03:00:29;;;;;;;10.15;5.53;;;;;;;-3.36;94.41;100356.13;5074669;28;20110;-70
2021/12/27 03:02:57;;;;;;;3.25;2.53;;;;;;;-3.35;95.39;100359.59;5073486;28;20017;-70
2021/12/27 03:05:28;;;;;;;10.23;6.57;;;;;;;-3.34;95.09;100351.75;5082196;28;20431;-70
2021/12/27 03:07:54;;;;;;;12.68;5.57;;;;;;;-3.35;95.72;100368.16;5074323;28;20051;-70
2021/12/27 03:10:24;;;;;;;15.18;8.35;;;;;;;-3.34;95.84;100362.06;5059191;28;20534;-70
2021/12/27 03:12:51;;;;;;;13.48;7.75;;;;;;;-3.33;96.04;100348.28;5075651;28;20027;-70
2021/12/27 03:15:17;;;;;;;12.07;7.07;;;;;;;-3.45;95.67;100323.03;5078050;28;20031;-70
2021/12/27 03:17:45;;;;;;;12.07;7.22;;;;;;;-3.27;96.08;100336.81;5057579;28;20040;-70
2021/12/27 03:20:12;;;;;;;11.23;8.10;;;;;;;-3.33;95.76;100331.97;5075308;28;20038;-70
2021/12/27 03:22:38;;;;;;;11.48;6.97;;;;;;;-3.24;96.49;100346.16;5075692;28;20043;-70
2021/12/27 03:25:04;;;;;;;8.35;5.82;;;;;;;-3.21;96.56;100335.69;5059094;28;20106;-70
2021/12/27 03:27:30;;;;;;;12.48;7.57;;;;;;;-3.20;96.49;100334.75;5071423;28;20111;-70
2021/12/27 03:29:55;;;;;;;11.40;6.85;;;;;;;-3.31;96.56;100319.78;5073702;28;20123;-70
2021/12/27 03:32:22;;;;;;;14.52;7.75;;;;;;;-3.29;96.47;100317.97;5073047;28;20029;-69
2021/12/27 03:34:55;;;;;;;10.68;7.07;;;;;;;-3.19;96.51;100337.28;5043538;28;20039;-71
2021/12/27 03:37:22;;;;;;;11.10;6.68;;;;;;;-3.14;96.38;100337.03;5079811;28;20025;-70
2021/12/27 03:39:48;;;;;;;15.43;8.07;;;;;;;-3.13;96.76;100334.41;5079299;28;20025;-70
2021/12/27 03:42:16;;;;;;;14.90;7.85;;;;;;;-3.14;97.15;100321.56;5080402;28;20496;-70
2021/12/27 03:44:42;;;;;;;13.25;7.22;;;;;;;-3.09;96.84;100319.59;5079344;28;20028;-72
2021/12/27 03:47:07;;;;;;;12.43;7.00;;;;;;;-3.08;97.25;100305.78;5064667;28;20036;-70
2021/12/27 03:49:33;;;;;;;11.90;6.70;;;;;;;-3.04;97.19;100316.78;5059460;28;20085;-70
2021/12/27 03:51:58;;;;;;;13.90;6.80;;;;;;;-3.03;97.50;100329.59;5065230;28;20037;-70
2021/12/27 03:54:24;;;;;;;15.20;8.10;;;;;;;-3.11;97.12;100301.59;5081965;28;20055;-70
2021/12/27 03:56:49;;;;;;;11.70;7.25;;;;;;;-3.06;97.54;100305.69;5056781;28;20485;-70
2021/12/27 04:01:45;;;;;;;;;;;;;;;-2.94;97.52;100300.75;5063752;28;20036;-70
2021/12/27 04:04:11;;;;;;;15.60;7.13;;;;;;;-3.05;97.79;100266.06;5076612;28;19981;-70
2021/12/27 04:06:36;;;;;;;14.30;7.43;;;;;;;-2.87;97.72;100290.09;5072114;28;20021;-69
2021/12/27 04:09:02;;;;;;;16.08;8.27;;;;;;;-2.83;97.67;100307.09;5083425;28;20036;-70
2021/12/27 04:11:28;;;;;;;10.70;5.63;;;;;;;-2.83;97.78;100296.78;5077617;28;20148;-70
2021/12/27 04:13:55;;;;;;;11.75;6.47;;;;;;;-2.77;97.54;100291.31;5075669;28;20039;-72
2021/12/27 04:16:21;;;;;;;11.60;8.02;;;;;;;-2.80;97.90;100288.91;5072935;28;20469;-70
2021/12/27 04:18:47;;;;;;;12.35;7.15;;;;;;;-2.77;97.67;100293.88;5043041;28;20093;-70
2021/12/27 04:21:12;;;;;;;14.10;8.02;;;;;;;-2.74;98.11;100301.50;5081388;28;20063;-70
2021/12/27 04:23:38;;;;;;;15.55;7.95;;;;;;;-2.80;98.09;100287.13;5079918;28;20189;-70
2021/12/27 04:26:04;;;;;;;12.23;7.90;;;;;;;-2.72;98.56;100302.25;5043818;28;20024;-70
2021/12/27 04:28:30;;;;;;;12.82;8.30;;;;;;;-2.82;98.87;100286.38;5081839;28;20571;-70
2021/12/27 04:30:55;;;;;;;23.38;8.90;;;;;;;-2.71;99.12;100291.00;5073063;28;20115;-70
2021/12/27 04:33:21;;;;;;;14.43;8.77;;;;;;;-2.70;99.03;100300.41;5078941;28;20025;-70
2021/12/27 04:35:46;;;;;;;15.38;9.38;;;;;;;-2.73;99.40;100285.06;5082229;28;20020;-70
2021/12/27 04:38:12;;;;;;;15.50;7.88;;;;;;;-2.67;99.34;100282.19;5059450;28;20373;-70
2021/12/27 04:40:41;;;;;;;17.35;7.22;;;;;;;-2.63;99.32;100280.28;5073499;28;20025;-70
2021/12/27 04:43:18;;;;;;;9.65;5.78;;;;;;;-2.98;98.91;100214.03;5075036;28;20482;-70
2021/12/27 04:45:45;;;;;;;16.50;8.48;;;;;;;-2.59;99.74;100266.25;5079184;28;20173;-71
2021/12/27 04:48:11;;;;;;;14.23;8.75;;;;;;;-2.61;99.59;100263.78;5061486;28;20048;-70
2021/12/27 04:50:37;;;;;;;12.05;7.70;;;;;;;-2.52;99.44;100265.88;5074646;28;20427;-70
2021/12/27 04:53:03;;;;;;;11.68;7.30;;;;;;;-2.52;99.48;100263.28;5059351;28;20040;-70
2021/12/27 04:55:30;;;;;;;15.30;8.73;;;;;;;-2.51;99.13;100267.53;5039791;28;20044;-71
2021/12/27 04:57:55;;;;;;;12.63;7.90;;;;;;;-2.49;99.16;100267.47;5056517;28;20032;-71
2021/12/27 05:00:21;;;;;;;15.00;8.15;;;;;;;-2.47;99.29;100269.97;5044449;28;20037;-71
2021/12/27 05:02:46;;;;;;;7.55;4.53;;;;;;;-2.50;99.11;100258.06;5053277;28;20021;-70
2021/12/27 05:05:12;;;;;;;12.02;7.25;;;;;;;-2.49;99.25;100247.63;5058136;28;20044;-71
2021/12/27 05:07:37;;;;;;;14.80;7.75;;;;;;;-2.51;99.43;100241.69;5054780;28;20392;-71
2021/12/27 05:10:04;;;;;;;13.82;8.07;;;;;;;-2.44;99.26;100241.38;5052893;28;20060;-70
2021/12/27 05:12:29;;;;;;;14.57;7.30;;;;;;;-2.42;99.51;100249.88;5063657;28;20056;-70
2021/12/27 05:14:55;;;;;;;13.63;8.38;;;;;;;-2.49;99.07;100231.28;5042252;28;20067;-71
2021/12/27 05:17:20;;;;;;;18.75;8.63;;;;;;;-2.45;99.44;100231.97;5054826;28;20029;-70
2021/12/27 05:19:46;;;;;;;18.83;7.97;;;;;;;-2.40;99.67;100242.88;5052824;28;20104;-71
2021/12/27 05:22:11;;;;;;;11.60;7.38;;;;;;;-2.44;99.01;100221.53;5053228;28;20060;-70
2021/12/27 05:24:36;;;;;;;12.77;6.68;;;;;;;-2.41;99.60;100228.31;5056401;28;20392;-72
2021/12/27 05:27:02;;;;;;;16.85;8.05;;;;;;;-2.55;99.61;100206.63;5055314;28;20029;-71
2021/12/27 05:29:28;;;;;;;18.45;9.98;;;;;;;-2.55;99.41;100206.63;5055470;28;20032;-72
2021/12/27 05:31:57;;;;;;;14.52;7.72;;;;;;;-2.36;99.29;100232.28;5056398;28;20416;-71
2021/12/27 05:34:23;;;;;;;15.38;8.93;;;;;;;-2.37;99.48;100227.22;5051665;28;20036;-72
2021/12/27 05:36:48;;;;;;;18.45;9.70;;;;;;;-2.35;99.61;100227.94;5054891;28;20397;-71
2021/12/27 05:39:19;;;;;;;13.48;8.35;;;;;;;-2.33;99.46;100223.53;5059767;28;20040;-70
2021/12/27 05:41:45;;;;;;;12.18;6.60;;;;;;;-2.35;99.35;100217.63;5059093;28;20074;-70
2021/12/27 05:44:10;;;;;;;17.30;7.93;;;;;;;-2.52;99.87;100196.13;5051027;28;20025;-72
2021/12/27 05:46:36;;;;;;;16.00;8.40;;;;;;;-2.37;100.00;100211.72;5051962;28;20402;-71
2021/12/27 05:49:01;;;;;;;14.10;7.93;;;;;;;-2.27;99.80;100225.78;5050980;28;20024;-71
2021/12/27 05:51:26;;;;;;;17.63;8.98;;;;;;;-2.27;99.64;100220.63;5055099;28;20071;-71
2021/12/27 05:53:52;;;;;;;18.02;7.35;;;;;;;-2.25;100.00;100213.63;5041432;28;20025;-71
2021/12/27 05:56:17;;;;;;;14.57;8.10;;;;;;;-2.30;99.67;100207.88;5075947;28;20048;-70
2021/12/27 05:58:43;;;;;;;13.52;7.68;;;;;;;-2.25;99.74;100221.38;5075421;28;20036;-70
2021/12/27 06:01:08;;;;;;;14.15;8.73;;;;;;;-2.21;99.71;100222.88;5078542;28;20024;-70
2021/12/27 06:03:33;;;;;;;11.60;7.60;;;;;;;-2.17;99.85;100215.81;5074803;28;20089;-73
2021/12/27 06:05:59;;;;;;;17.75;9.20;;;;;;;-2.20;100.00;100219.38;5082419;28;20530;-71
2021/12/27 06:08:24;;;;;;;14.10;7.53;;;;;;;-2.41;99.47;100194.72;5064758;28;20541;-72
2021/12/27 06:10:50;;;;;;;16.08;8.13;;;;;;;-2.24;100.00;100210.13;5045701;28;20637;-71
2021/12/27 06:13:15;;;;;;;19.17;10.43;;;;;;;-2.17;99.72;100221.81;5035915;28;20031;-71
2021/12/27 06:15:41;;;;;;;15.90;9.82;;;;;;;-2.14;100.00;100218.22;5073714;28;20117;-71
2021/12/27 06:18:06;;;;;;;16.45;9.30;;;;;;;-2.16;99.85;100212.28;5079748;28;20024;-71
2021/12/27 06:20:31;;;;;;;16.38;9.75;;;;;;;-2.14;100.00;100221.63;5076550;28;20033;-71
2021/12/27 06:22:59;;;;;;;13.63;7.75;;;;;;;-2.16;100.00;100213.09;5073074;28;20407;-71
2021/12/27 06:25:25;;;;;;;17.02;9.85;;;;;;;-2.23;100.00;100198.88;5079444;28;20486;-71
2021/12/27 06:27:50;;;;;;;17.50;10.48;;;;;;;-2.25;100.00;100197.28;5075443;28;20028;-71
2021/12/27 06:30:17;;;;;;;19.00;10.30;;;;;;;-2.22;100.00;100207.44;5055724;28;20035;-71
2021/12/27 06:32:44;;;;;;;22.20;8.93;;;;;;;-2.23;100.00;100206.63;5078015;28;20028;-71
2021/12/27 06:35:11;;;;;;;15.48;8.73;;;;;;;-2.27;100.00;100185.25;5075329;28;20032;-71
2021/12/27 06:37:39;;;;;;;19.73;9.35;;;;;;;-2.30;100.00;100189.78;5076306;28;20024;-71
2021/12/27 06:40:05;;;;;;;16.65;9.10;;;;;;;-2.29;100.00;100181.09;5077039;28;20056;-71
2021/12/27 06:42:30;;;;;;;19.02;9.48;;;;;;;-2.19;100.00;100190.03;5083814;28;20059;-71
2021/12/27 06:44:56;;;;;;;14.90;8.88;;;;;;;-2.26;100.00;100196.47;5061990;28;20027;-71
2021/12/27 06:47:22;;;;;;;19.50;9.63;;;;;;;-2.25;100.00;100192.94;5079749;28;20032;-71
2021/12/27 06:49:48;;;;;;;24.35;9.77;;;;;;;-2.23;100.00;100185.13;5081557;28;20028;-71
2021/12/27 06:52:14;;;;;;;15.95;9.80;;;;;;;-2.21;100.00;100189.28;5073399;28;20028;-71
2021/12/27 06:54:41;;;;;;;12.63;7.50;;;;;;;-2.37;100.00;100172.97;5076634;28;20559;-71
2021/12/27 06:57:06;;;;;;;18.75;10.25;;;;;;;-2.25;100.00;100181.78;5077754;28;20060;-71
2021/12/27 06:59:32;;;;;;;17.65;9.00;;;;;;;-2.39;100.00;100160.09;5077025;28;20072;-71
2021/12/27 07:01:57;;;;;;;18.55;8.40;;;;;;;-2.23;100.00;100180.75;5041403;28;20048;-71
2021/12/27 07:04:23;;;;;;;18.42;9.93;;;;;;;-2.25;100.00;100185.19;5057897;28;24704;-71
2021/12/27 07:06:48;;;;;;;17.10;10.32;;;;;;;-2.25;100.00;100182.59;5081732;28;20040;-71
2021/12/27 07:09:14;;;;;;;16.98;9.65;;;;;;;-2.26;100.00;100180.94;5074382;28;20031;-71
2021/12/27 07:11:41;;;;;;;23.42;9.80;;;;;;;-2.27;100.00;100171.50;5074833;28;20021;-73
2021/12/27 07:14:06;;;;;;;18.42;9.50;;;;;;;-2.23;100.00;100175.59;5079703;28;20399;-71
2021/12/27 07:16:32;;;;;;;20.67;10.27;;;;;;;-2.33;100.00;100153.75;5077254;28;20120;-71
2021/12/27 07:18:57;;;;;;;15.10;8.45;;;;;;;-2.21;100.00;100171.19;5062105;28;20043;-71
2021/12/27 07:21:23;;;;;;;18.98;8.82;;;;;;;-2.33;100.00;100156.34;5059951;28;20028;-71
2021/12/27 07:23:49;;;;;;;18.52;10.65;;;;;;;-2.25;100.00;100181.78;5076133;28;20035;-72
2021/12/27 07:26:14;;;;;;;18.55;10.65;;;;;;;-2.24;100.00;100173.09;5054435;28;20490;-71
2021/12/27 07:28:39;;;;;;;21.73;10.07;;;;;;;-2.42;100.00;100154.25;5070341;28;20107;-71
2021/12/27 07:31:07;;;;;;;13.63;7.93;;;;;;;-2.28;100.00;100181.03;5056888;28;20040;-71
2021/12/27 07:33:33;;;;;;;15.07;9.00;;;;;;;-2.24;100.00;100173.94;5077669;28;20037;-73
2021/12/27 07:35:58;;;;;;;7.88;6.00;;;;;;;-2.43;100.00;100153.44;5079141;28;20051;-72
2021/12/27 07:38:23;;;;;;;15.93;9.57;;;;;;;-2.23;100.00;100175.59;5063202;28;20115;-71
2021/12/27 07:40:49;;;;;;;14.73;8.95;;;;;;;-2.19;100.00;100182.28;5077093;28;20442;-71
2021/12/27 07:43:14;;;;;;;14.35;9.73;;;;;;;-2.18;100.00;100178.75;5073224;28;20036;-72
2021/12/27 07:45:40;;;;;;;12.00;6.72;;;;;;;-2.24;100.00;100176.53;5075882;28;20563;-71
2021/12/27 07:48:07;;;;;;;12.07;7.28;;;;;;;-2.25;100.00;100163.69;5081531;28;20035;-71
2021/12/27 07:50:34;;;;;;;16.27;10.95;;;;;;;-2.16;100.00;100176.91;5059958;28;20028;-71
2021/12/27 07:53:00;;;;;;;20.73;9.68;;;;;;;-2.23;100.00;100178.19;5083096;28;20032;-71
2021/12/27 07:55:27;;;;;;;16.60;8.50;;;;;;;-2.13;100.00;100184.53;5076864;28;20102;-71
2021/12/27 07:57:54;;;;;;;18.80;9.95;;;;;;;-2.09;100.00;100177.41;5075740;28;20055;-71
2021/12/27 08:00:20;;;;;;;18.38;10.27;;;;;;;-2.06;100.00;100182.41;5072635;28;20035;-71
2021/12/27 08:02:45;;;;;;;19.67;9.13;;;;;;;-2.02;100.00;100183.09;5075601;28;20020;-71
2021/12/27 08:05:11;;;;;;;19.70;10.85;;;;;;;-2.13;100.00;100168.19;5059290;28;20032;-73
2021/12/27 08:07:36;;;;;;;16.05;9.27;;;;;;;-2.05;100.00;100184.06;5071548;28;20463;-71
2021/12/27 08:10:03;;;;;;;18.42;9.90;;;;;;;-2.03;100.00;100182.25;5061666;28;20460;-71
2021/12/27 08:12:29;;;;;;;17.77;10.75;;;;;;;-2.03;100.00;100177.06;5055541;28;20040;-71
2021/12/27 08:14:54;;;;;;;17.42;8.23;;;;;;;-1.99;100.00;100175.16;5073141;28;20030;-71
2021/12/27 08:17:19;;;;;;;25.35;11.95;;;;;;;-1.98;100.00;100166.47;5074861;28;20032;-71
2021/12/27 08:19:47;;;;;;;23.48;11.32;;;;;;;-2.01;100.00;100166.66;5058914;28;20036;-71
2021/12/27 08:22:12;;;;;;;21.55;11.50;;;;;;;-2.02;100.00;100172.75;5069087;28;20558;-72
2021/12/27 08:24:38;;;;;;;21.60;11.15;;;;;;;-2.03;100.00;100171.06;5075141;28;20028;-72
2021/12/27 08:27:03;;;;;;;20.23;11.05;;;;;;;-3.13;100.00;99987.69;5056627;28;20064;-71
2021/12/27 08:29:30;;;;;;;22.38;10.57;;;;;;;-2.01;100.00;100164.06;5071100;28;20054;-71
2021/12/27 08:31:55;;;;;;;18.27;9.63;;;;;;;-1.97;100.00;100170.72;5071171;28;20037;-71
2021/12/27 08:34:21;;;;;;;27.55;11.98;;;;;;;-2.20;100.00;100135.81;5056560;28;20488;-71
2021/12/27 08:36:46;;;;;;;19.55;10.32;;;;;;;-1.98;100.00;100169.03;5039221;28;20033;-71
2021/12/27 08:39:12;;;;;;;29.70;12.27;;;;;;;-2.10;100.00;100144.72;5053325;28;20043;-70
2021/12/27 08:41:37;;;;;;;14.23;8.60;;;;;;;-1.94;100.00;100173.13;5055998;28;20377;-71
2021/12/27 08:44:05;;;;;;;17.25;9.82;;;;;;;-1.89;100.00;100160.78;5058621;28;20181;-71
2021/12/27 08:46:32;;;;;;;19.48;11.57;;;;;;;-1.86;100.00;100179.53;5073309;28;20116;-72
2021/12/27 08:48:57;;;;;;;19.27;13.88;;;;;;;-1.87;100.00;100179.66;5079576;28;20115;-71
2021/12/27 08:51:23;;;;;;;20.70;11.73;;;;;;;-1.83;100.00;100177.69;5074459;28;20460;-71
2021/12/27 08:53:50;;;;;;;25.42;11.75;;;;;;;-1.99;100.00;100162.22;5054930;28;20559;-72
2021/12/27 08:56:16;;;;;;;24.88;12.85;;;;;;;-1.84;100.00;100176.88;5050429;28;20053;-73
2021/12/27 08:58:41;;;;;;;18.45;10.73;;;;;;;-1.94;100.00;100160.19;5050581;28;20044;-71
2021/12/27 09:01:07;;;;;;;20.90;11.40;;;;;;;-1.84;100.00;100176.03;5051096;28;20032;-72
2021/12/27 09:03:33;;;;;;;20.00;11.55;;;;;;;-1.87;100.00;100169.31;5055092;28;20025;-70
2021/12/27 09:05:59;;;;;;;26.48;12.55;;;;;;;-1.81;100.00;100179.28;5054367;28;20078;-72
2021/12/27 09:08:24;;;;;;;24.17;11.95;;;;;;;-1.99;100.00;100151.88;5039028;28;20032;-72
2021/12/27 09:10:50;;;;;;;23.38;11.30;;;;;;;-1.84;100.00;100169.13;5054077;28;20420;-72
2021/12/27 09:13:15;;;;;;;18.85;10.68;;;;;;;-1.76;100.00;100171.28;5060118;28;20028;-73
2021/12/27 09:15:41;;;;;;;23.63;11.25;;;;;;;-1.74;100.00;100177.16;5057660;28;20033;-71
2021/12/27 09:18:06;;;;;;;21.00;10.90;;;;;;;-1.89;100.00;100146.09;5056384;28;20039;-71
2021/12/27 09:20:32;;;;;;;21.20;12.23;;;;;;;-1.71;100.00;100164.91;5055294;28;20044;-71
2021/12/27 09:22:57;;;;;;;18.05;10.90;;;;;;;-1.75;100.00;100155.66;5056803;28;20017;-72
2021/12/27 09:25:23;;;;;;;25.50;12.75;;;;;;;-1.69;100.00;100160.47;5054461;28;20093;-73
2021/12/27 09:27:49;;;;;;;25.85;12.77;;;;;;;-1.64;100.00;100167.97;5051339;28;20056;-72
2021/12/27 09:30:14;;;;;;;23.48;10.30;;;;;;;-1.73;100.00;100138.28;5051573;28;20024;-72
2021/12/27 09:32:40;;;;;;;27.27;11.52;;;;;;;-1.54;100.00;100157.94;5061152;28;20541;-72
2021/12/27 09:35:06;;;;;;;24.88;11.93;;;;;;;-1.62;100.00;100139.41;5050625;28;20473;-73
2021/12/27 09:37:32;;;;;;;19.00;8.60;;;;;;;-1.68;100.00;100131.09;5031006;28;20107;-74
2021/12/27 09:39:57;;;;;;;18.50;11.00;;;;;;;-1.48;100.00;100157.53;5052425;28;20059;-73
2021/12/27 09:42:25;;;;;;;28.20;13.63;;;;;;;-1.46;100.00;100153.13;5061809;28;20029;-73
2021/12/27 09:44:52;;;;;;;24.30;14.18;;;;;;;-1.40;100.00;100147.59;5051460;28;20120;-73
2021/12/27 09:47:18;;;;;;;25.60;12.75;;;;;;;-1.37;100.00;100154.31;5054853;28;20025;-73
2021/12/27 09:49:44;;;;;;;27.00;12.63;;;;;;;-1.32;100.00;100153.16;5050762;28;20029;-72
2021/12/27 09:52:11;;;;;;;27.63;12.82;;;;;;;-1.29;100.00;100152.94;5053113;28;20027;-73
2021/12/27 09:54:37;;;;;;;22.00;11.95;;;;;;;-1.30;100.00;100156.47;5063443;28;20060;-73
2021/12/27 09:57:03;;;;;;;25.88;12.38;;;;;;;-1.27;100.00;100155.47;5071035;28;20405;-73
2021/12/27 09:59:29;;;;;;;22.95;10.88;;;;;;;-1.27;100.00;100140.75;5065842;28;20021;-73
2021/12/27 10:01:54;;;;;;;22.17;11.98;;;;;;;-1.20;100.00;100153.34;5053656;28;20043;-72
2021/12/27 10:04:21;;;;;;;25.83;11.57;;;;;;;-1.21;100.00;100144.75;5073388;28;20035;-72
2021/12/27 10:06:47;;;;;;;22.25;11.65;;;;;;;-1.29;100.00;100127.06;5052049;28;20020;-73
2021/12/27 10:09:14;;;;;;;28.08;13.25;;;;;;;-1.14;100.00;100142.63;5057031;28;20024;-73
2021/12/27 10:11:42;;;;;;;22.35;10.15;;;;;;;-1.17;100.00;100129.88;5055211;28;20626;-73
2021/12/27 10:14:15;;;;;;;30.08;14.27;;;;;;;-1.12;100.00;100130.41;5070301;28;20398;-73
2021/12/27 10:16:53;;;;;;;23.17;12.32;;;;;;;-1.13;100.00;100133.91;5072780;28;20081;-73
2021/12/27 10:19:20;;;;;;;20.02;11.50;;;;;;;-1.19;100.00;100116.19;5067240;28;20249;-73
2021/12/27 10:21:48;;;;;;;21.77;11.40;;;;;;;-1.13;100.00;100133.91;5071631;28;20519;-72
2021/12/27 10:24:16;;;;;;;22.98;12.10;;;;;;;-1.14;100.00;100129.66;5072611;28;20024;-73
2021/12/27 10:26:44;;;;;;;30.85;14.27;;;;;;;-1.21;100.00;100124.03;5074683;28;20110;-73
2021/12/27 10:29:17;;;;;;;27.95;13.65;;;;;;;-1.22;100.00;100121.53;5071469;28;20060;-74
2021/12/27 10:32:04;;;;;;;31.33;12.60;;;;;;;-1.34;100.00;100092.88;5068873;28;20097;-72
2021/12/27 10:34:36;;;;;;;21.33;13.25;;;;;;;-1.21;100.00;100118.03;5069787;28;20041;-73
2021/12/27 10:37:18;;;;;;;30.73;14.63;;;;;;;-1.20;100.00;100112.72;5059674;28;20034;-72
2021/12/27 10:39:44;;;;;;;27.75;12.98;;;;;;;-1.20;100.00;100099.78;5075784;28;20377;-72
2021/12/27 10:42:11;;;;;;;32.65;15.50;;;;;;;-1.14;100.00;100104.59;5075533;28;20012;-73
2021/12/27 10:44:37;;;;;;;25.55;12.93;;;;;;;-1.15;100.00;100096.94;5066168;28;20020;-73
2021/12/27 10:47:22;;;;;;;34.92;15.70;;;;;;;-1.09;100.00;100107.75;5079901;28;20043;-73
2021/12/27 10:49:48;;;;;;;30.92;15.27;;;;;;;-1.05;100.00;100101.44;5064541;28;20684;-73
2021/12/27 10:52:13;;;;;;;31.17;14.65;;;;;;;-1.03;100.00;100093.59;5077303;28;20491;-74
2021/12/27 10:54:39;;;;;;;31.23;15.93;;;;;;;-1.01;100.00;100090.91;5065017;28;20048;-74
2021/12/27 10:57:04;;;;;;;30.10;14.27;;;;;;;-1.02;100.00;100100.44;5074059;28;20364;-73
2021/12/27 10:59:30;;;;;;;32.95;13.93;;;;;;;-0.99;100.00;100107.19;5068333;28;20067;-73
2021/12/27 11:01:55;;;;;;;33.00;16.25;;;;;;;-1.00;100.00;100090.81;5080446;28;20086;-73
2021/12/27 11:04:21;;;;;;;34.88;15.85;;;;;;;-1.00;100.00;100070.09;5074929;28;20036;-73
2021/12/27 11:06:48;;;;;;;41.03;13.88;;;;;;;-0.89;100.00;100079.78;5079044;28;20107;-74
2021/12/27 11:09:14;;;;;;;18.95;11.43;;;;;;;-0.85;100.00;100084.69;5073747;28;20801;-74
2021/12/27 11:11:40;;;;;;;32.38;14.80;;;;;;;-0.82;100.00;100072.47;5082360;28;20028;-73
2021/12/27 11:14:06;;;;;;;32.03;14.38;;;;;;;-0.84;100.00;100073.38;5058140;28;20490;-73
2021/12/27 11:16:32;;;;;;;29.30;12.27;;;;;;;-0.84;100.00;100075.97;5080444;28;20047;-73